createdAt,value
2023-03-06T00:00:48.916Z,100.00
2023-03-06T00:03:15.879Z,100.00
2023-03-06T00:05:42.313Z,100.00
2023-03-06T00:08:08.711Z,100.00
2023-03-06T00:10:35.242Z,100.00
2023-03-06T00:13:05.734Z,100.00
2023-03-06T00:15:32.465Z,100.00
2023-03-06T00:17:59.067Z,100.00
2023-03-06T00:20:26.394Z,100.00
2023-03-06T00:22:52.843Z,100.00
2023-03-06T00:25:20.880Z,100.00
2023-03-06T00:27:48.978Z,100.00
2023-03-06T00:30:18.528Z,100.00
2023-03-06T00:32:44.911Z,100.00
2023-03-06T00:35:12.281Z,100.00
2023-03-06T00:37:39.292Z,100.00
2023-03-06T00:40:07.116Z,100.00
2023-03-06T00:42:33.485Z,100.00
2023-03-06T00:44:59.799Z,100.00
2023-03-06T00:47:26.189Z,100.00
2023-03-06T00:49:52.442Z,100.00
2023-03-06T00:52:18.846Z,100.00
2023-03-06T00:54:45.201Z,100.00
2023-03-06T00:57:11.610Z,100.00
2023-03-06T00:59:37.907Z,100.00
2023-03-06T01:02:04.770Z,100.00
2023-03-06T01:04:31.503Z,100.00
2023-03-06T01:06:57.834Z,100.00
2023-03-06T01:09:24.320Z,100.00
2023-03-06T01:11:50.765Z,100.00
2023-03-06T01:14:17.274Z,100.00
2023-03-06T01:16:43.597Z,100.00
2023-03-06T01:19:09.957Z,100.00
2023-03-06T01:21:36.316Z,100.00
2023-03-06T01:24:02.728Z,100.00
2023-03-06T01:26:28.984Z,100.00
2023-03-06T01:28:55.338Z,100.00
2023-03-06T01:31:21.719Z,100.00
2023-03-06T01:33:48.053Z,100.00
2023-03-06T01:36:14.416Z,100.00
2023-03-06T01:38:40.922Z,100.00
2023-03-06T01:41:07.454Z,100.00
2023-03-06T01:43:36.203Z,100.00
2023-03-06T01:46:24.075Z,100.00
2023-03-06T01:48:55.471Z,100.00
2023-03-06T01:51:25.470Z,100.00
2023-03-06T01:53:52.787Z,100.00
2023-03-06T01:56:19.804Z,100.00
2023-03-06T01:58:47.252Z,100.00
2023-03-06T02:01:14.557Z,100.00
2023-03-06T02:03:43.584Z,100.00
2023-03-06T02:06:09.941Z,100.00
2023-03-06T02:08:36.358Z,100.00
2023-03-06T02:11:11.264Z,100.00
2023-03-06T02:13:38.641Z,100.00
2023-03-06T02:16:05.510Z,100.00
2023-03-06T02:18:33.598Z,100.00
2023-03-06T02:21:03.720Z,100.00
2023-03-06T02:24:07.979Z,100.00
2023-03-06T02:26:36.874Z,100.00
2023-03-06T02:29:03.731Z,100.00
2023-03-06T02:31:33.081Z,100.00
2023-03-06T02:34:28.544Z,100.00
2023-03-06T02:37:15.173Z,100.00
2023-03-06T02:39:46.766Z,100.00
2023-03-06T02:42:22.292Z,100.00
2023-03-06T02:44:49.365Z,100.00
2023-03-06T02:47:15.816Z,100.00
2023-03-06T02:49:42.165Z,100.00
2023-03-06T02:52:08.586Z,100.00
2023-03-06T02:54:34.850Z,100.00
2023-03-06T02:57:01.205Z,100.00
2023-03-06T02:59:27.519Z,100.00
2023-03-06T03:01:53.905Z,100.00
2023-03-06T03:04:20.191Z,100.00
2023-03-06T03:06:46.549Z,100.00
2023-03-06T03:09:12.796Z,100.00
2023-03-06T03:11:39.198Z,100.00
2023-03-06T03:14:05.461Z,100.00
2023-03-06T03:16:31.896Z,100.00
2023-03-06T03:18:58.346Z,100.00
2023-03-06T03:21:24.652Z,100.00
2023-03-06T03:23:51.061Z,100.00
2023-03-06T03:26:18.770Z,100.00
2023-03-06T03:28:45.559Z,100.00
2023-03-06T03:31:12.744Z,100.00
2023-03-06T03:33:40.073Z,100.00
2023-03-06T03:36:08.205Z,100.00
2023-03-06T03:38:35.253Z,100.00
2023-03-06T03:41:02.304Z,100.00
2023-03-06T03:43:28.721Z,100.00
2023-03-06T03:45:55.014Z,100.00
2023-03-06T03:48:21.464Z,100.00
2023-03-06T03:50:47.859Z,100.00
2023-03-06T03:53:14.206Z,100.00
2023-03-06T03:55:40.600Z,100.00
2023-03-06T03:58:06.946Z,100.00
2023-03-06T04:00:33.332Z,100.00
2023-03-06T04:02:59.663Z,100.00
2023-03-06T04:05:26.072Z,100.00
2023-03-06T04:07:52.415Z,100.00
2023-03-06T04:10:18.945Z,100.00
2023-03-06T04:12:45.400Z,100.00
2023-03-06T04:15:11.762Z,100.00
2023-03-06T04:17:38.218Z,100.00
2023-03-06T04:20:05.184Z,100.00
2023-03-06T04:22:31.670Z,100.00
2023-03-06T04:24:58.105Z,100.00
2023-03-06T04:27:24.469Z,100.00
2023-03-06T04:29:50.923Z,100.00
2023-03-06T04:32:18.301Z,100.00
2023-03-06T04:34:46.110Z,100.00
2023-03-06T04:37:18.261Z,100.00
2023-03-06T04:39:44.741Z,100.00
2023-03-06T04:42:11.230Z,100.00
2023-03-06T04:44:37.660Z,100.00
2023-03-06T04:47:04.153Z,100.00
2023-03-06T04:49:30.542Z,100.00
2023-03-06T04:51:56.876Z,100.00
2023-03-06T04:54:23.471Z,100.00
2023-03-06T04:56:49.886Z,100.00
2023-03-06T04:59:16.246Z,100.00
2023-03-06T05:01:42.657Z,100.00
2023-03-06T05:04:09.033Z,100.00
2023-03-06T05:06:35.497Z,100.00
2023-03-06T05:09:01.903Z,100.00
2023-03-06T05:11:28.331Z,100.00
2023-03-06T05:13:54.883Z,100.00
2023-03-06T05:16:21.450Z,100.00
2023-03-06T05:18:50.504Z,100.00
2023-03-06T05:21:17.219Z,100.00
2023-03-06T05:23:43.886Z,100.00
2023-03-06T05:26:13.058Z,100.00
2023-03-06T05:28:39.655Z,100.00
2023-03-06T05:31:06.809Z,100.00
2023-03-06T05:33:34.342Z,100.00
2023-03-06T05:36:01.121Z,100.00
2023-03-06T05:38:27.941Z,100.00
2023-03-06T05:40:54.484Z,100.00
2023-03-06T05:43:20.979Z,100.00
2023-03-06T05:45:47.454Z,100.00
2023-03-06T05:48:14.105Z,100.00
2023-03-06T05:50:40.508Z,100.00
2023-03-06T05:53:06.836Z,100.00
2023-03-06T05:55:33.427Z,100.00
2023-03-06T05:57:59.993Z,100.00
2023-03-06T06:00:26.524Z,100.00
2023-03-06T06:02:53.005Z,100.00
2023-03-06T06:05:19.441Z,100.00
2023-03-06T06:07:45.802Z,100.00
2023-03-06T06:10:12.590Z,100.00
2023-03-06T06:12:39.062Z,100.00
2023-03-06T06:15:07.624Z,100.00
2023-03-06T06:17:33.992Z,100.00
2023-03-06T06:20:00.463Z,100.00
2023-03-06T06:22:26.999Z,100.00
2023-03-06T06:24:53.448Z,100.00
2023-03-06T06:27:19.935Z,100.00
2023-03-06T06:29:46.524Z,100.00
2023-03-06T06:32:13.143Z,100.00
2023-03-06T06:34:39.722Z,100.00
2023-03-06T06:37:06.143Z,100.00
2023-03-06T06:39:32.661Z,100.00
2023-03-06T06:42:15.474Z,100.00
2023-03-06T06:44:45.644Z,100.00
2023-03-06T06:47:27.647Z,100.00
2023-03-06T06:49:55.702Z,100.00
2023-03-06T06:52:23.774Z,100.00
2023-03-06T06:54:50.546Z,100.00
2023-03-06T06:57:17.565Z,100.00
2023-03-06T06:59:44.089Z,100.00
2023-03-06T07:02:12.505Z,100.00
2023-03-06T07:04:42.456Z,100.00
2023-03-06T07:07:15.574Z,100.00
2023-03-06T07:09:42.115Z,100.00
2023-03-06T07:12:09.040Z,100.00
2023-03-06T07:14:35.795Z,100.00
2023-03-06T07:17:02.434Z,100.00
2023-03-06T07:19:28.883Z,100.00
2023-03-06T07:21:55.366Z,100.00
2023-03-06T07:24:21.835Z,100.00
2023-03-06T07:26:48.609Z,100.00
2023-03-06T07:29:15.440Z,100.00
2023-03-06T07:31:41.898Z,100.00
2023-03-06T07:34:12.383Z,100.00
2023-03-06T07:36:39.146Z,100.00
2023-03-06T07:39:05.988Z,100.00
2023-03-06T07:41:32.536Z,100.00
2023-03-06T07:43:59.276Z,100.00
2023-03-06T07:46:25.762Z,100.00
2023-03-06T07:48:52.272Z,100.00
2023-03-06T07:51:20.873Z,100.00
2023-03-06T07:53:48.688Z,100.00
2023-03-06T07:56:15.381Z,100.00
2023-03-06T07:58:44.605Z,99.58
2023-03-06T08:01:17.811Z,98.12
2023-03-06T08:03:44.793Z,98.48
2023-03-06T08:06:13.860Z,100.00
2023-03-06T08:08:43.119Z,100.00
2023-03-06T08:11:11.060Z,99.31
2023-03-06T08:13:37.587Z,99.96
2023-03-06T08:16:04.612Z,98.44
2023-03-06T08:18:31.388Z,98.88
2023-03-06T08:21:02.374Z,98.98
2023-03-06T08:23:29.001Z,98.93
2023-03-06T08:25:58.016Z,100.00
2023-03-06T08:28:24.639Z,100.00
2023-03-06T08:30:51.089Z,100.00
2023-03-06T08:33:17.507Z,100.00
2023-03-06T08:35:44.094Z,100.00
2023-03-06T08:38:10.574Z,100.00
2023-03-06T08:40:37.475Z,100.00
2023-03-06T08:43:04.215Z,100.00
2023-03-06T08:45:30.663Z,99.49
2023-03-06T08:47:57.077Z,96.48
2023-03-06T08:50:23.418Z,95.49
2023-03-06T08:52:49.806Z,96.91
2023-03-06T08:55:16.267Z,95.50
2023-03-06T08:57:42.611Z,89.34
2023-03-06T09:00:09.745Z,87.97
2023-03-06T09:02:36.265Z,88.88
2023-03-06T09:05:05.894Z,86.73
2023-03-06T09:07:32.422Z,84.82
2023-03-06T09:09:59.053Z,85.59
2023-03-06T09:12:25.941Z,84.52
2023-03-06T09:14:52.930Z,83.74
2023-03-06T09:17:19.876Z,80.51
2023-03-06T09:19:46.355Z,78.17
2023-03-06T09:22:12.712Z,77.28
2023-03-06T09:24:39.159Z,80.66
2023-03-06T09:27:05.543Z,80.62
2023-03-06T09:29:31.964Z,83.76
2023-03-06T09:31:58.649Z,77.08
2023-03-06T09:34:25.134Z,79.29
2023-03-06T09:36:56.699Z,77.78
2023-03-06T09:39:24.483Z,81.55
2023-03-06T09:41:51.359Z,80.57
2023-03-06T09:44:27.535Z,81.31
2023-03-06T09:47:28.426Z,81.50
2023-03-06T09:50:30.537Z,82.13
2023-03-06T09:53:32.360Z,83.45
2023-03-06T09:56:21.549Z,82.81
2023-03-06T09:58:53.733Z,80.16
2023-03-06T10:01:22.063Z,82.93
2023-03-06T10:03:55.042Z,78.20
2023-03-06T10:06:29.249Z,77.67
2023-03-06T10:09:05.251Z,78.94
2023-03-06T10:11:42.133Z,79.29
2023-03-06T10:14:31.634Z,79.08
2023-03-06T10:16:58.468Z,82.13
2023-03-06T10:19:33.476Z,78.74
2023-03-06T10:22:28.260Z,76.07
2023-03-06T10:25:12.522Z,76.92
2023-03-06T10:27:44.717Z,78.56
2023-03-06T10:30:42.022Z,74.81
2023-03-06T10:33:21.156Z,67.36
2023-03-06T10:35:52.873Z,73.64
2023-03-06T10:38:37.653Z,74.42
2023-03-06T10:41:12.874Z,73.44
2023-03-06T10:43:45.056Z,72.26
2023-03-06T10:46:12.853Z,69.36
2023-03-06T10:48:42.286Z,69.77
2023-03-06T10:51:21.894Z,68.29
2023-03-06T10:53:50.234Z,60.65
2023-03-06T10:56:37.495Z,57.76
2023-03-06T10:59:16.782Z,59.73
2023-03-06T11:01:48.824Z,59.39
2023-03-06T11:04:20.971Z,61.16
2023-03-06T11:06:47.713Z,62.76
2023-03-06T11:09:20.593Z,61.70
2023-03-06T11:11:47.276Z,62.18
2023-03-06T11:14:22.176Z,62.39
2023-03-06T11:16:50.714Z,61.76
2023-03-06T11:19:28.164Z,60.66
2023-03-06T11:22:06.581Z,60.97
2023-03-06T11:24:39.411Z,58.86
2023-03-06T11:27:29.609Z,60.99
2023-03-06T11:29:56.998Z,60.43
2023-03-06T11:32:28.952Z,56.30
2023-03-06T11:34:58.303Z,60.87
2023-03-06T11:37:45.845Z,59.51
2023-03-06T11:40:12.185Z,60.81
2023-03-06T11:43:02.469Z,58.98
2023-03-06T11:45:36.288Z,57.92
2023-03-06T11:48:14.894Z,57.51
2023-03-06T11:50:44.941Z,61.09
2023-03-06T11:53:15.937Z,60.94
2023-03-06T11:56:05.483Z,57.28
2023-03-06T11:58:53.903Z,56.73
2023-03-06T12:01:35.680Z,57.11
2023-03-06T12:04:20.885Z,58.22
2023-03-06T12:07:12.185Z,58.23
2023-03-06T12:09:53.775Z,58.62
2023-03-06T12:12:48.181Z,58.47
2023-03-06T12:15:40.641Z,51.50
2023-03-06T12:18:30.384Z,53.57
2023-03-06T12:21:05.612Z,51.07
2023-03-06T12:23:40.866Z,51.68
2023-03-06T12:26:31.773Z,52.20
2023-03-06T12:29:35.833Z,53.80
2023-03-06T12:32:24.602Z,51.57
2023-03-06T12:35:06.372Z,53.90
2023-03-06T12:37:49.884Z,51.40
2023-03-06T12:40:37.287Z,51.64
2023-03-06T12:43:38.398Z,54.55
2023-03-06T12:46:25.298Z,56.32
2023-03-06T12:49:07.665Z,58.69
2023-03-06T12:51:34.306Z,56.51
2023-03-06T12:54:02.761Z,55.46
2023-03-06T12:56:31.064Z,55.69
2023-03-06T12:58:58.830Z,58.08
2023-03-06T13:02:00.341Z,56.67
2023-03-06T13:04:53.104Z,57.77
2023-03-06T13:07:35.526Z,53.75
2023-03-06T13:10:22.360Z,56.71
2023-03-06T13:13:02.496Z,56.50
2023-03-06T13:15:39.718Z,57.61
2023-03-06T13:18:21.208Z,54.69
2023-03-06T13:20:52.630Z,50.75
2023-03-06T13:23:34.134Z,54.46
2023-03-06T13:26:23.390Z,55.71
2023-03-06T13:28:51.771Z,55.47
2023-03-06T13:31:33.494Z,56.48
2023-03-06T13:34:04.799Z,56.58
2023-03-06T13:36:39.037Z,56.99
2023-03-06T13:39:05.964Z,57.31
2023-03-06T13:41:32.302Z,55.38
2023-03-06T13:44:01.236Z,54.97
2023-03-06T13:46:36.942Z,57.43
2023-03-06T13:49:09.399Z,57.53
2023-03-06T13:51:38.368Z,58.34
2023-03-06T13:54:39.050Z,57.53
2023-03-06T13:57:33.253Z,58.52
2023-03-06T14:00:11.844Z,58.25
2023-03-06T14:02:53.398Z,58.92
2023-03-06T14:05:19.849Z,59.32
2023-03-06T14:07:48.407Z,58.69
2023-03-06T14:10:14.719Z,59.22
2023-03-06T14:12:51.580Z,57.78
2023-03-06T14:15:36.128Z,58.72
2023-03-06T14:18:18.246Z,60.19
2023-03-06T14:20:56.561Z,56.74
2023-03-06T14:23:33.385Z,59.06
2023-03-06T14:26:07.954Z,59.72
2023-03-06T14:28:35.708Z,58.86
2023-03-06T14:31:04.834Z,60.32
2023-03-06T14:33:50.163Z,59.66
2023-03-06T14:36:19.384Z,59.85
2023-03-06T14:38:55.644Z,60.66
2023-03-06T14:41:28.717Z,61.84
2023-03-06T14:44:21.247Z,62.32
2023-03-06T14:47:11.116Z,62.37
2023-03-06T14:49:37.511Z,60.78
2023-03-06T14:52:04.216Z,62.13
2023-03-06T14:54:36.107Z,61.12
2023-03-06T14:57:08.444Z,60.07
2023-03-06T14:59:41.573Z,61.83
2023-03-06T15:02:15.437Z,62.05
2023-03-06T15:04:46.100Z,62.88
2023-03-06T15:07:18.447Z,63.91
2023-03-06T15:09:49.520Z,64.75
2023-03-06T15:12:18.610Z,65.02
2023-03-06T15:14:56.734Z,65.76
2023-03-06T15:17:28.665Z,65.95
2023-03-06T15:19:57.302Z,67.65
2023-03-06T15:22:31.633Z,68.40
2023-03-06T15:25:24.578Z,67.55
2023-03-06T15:27:56.477Z,71.31
2023-03-06T15:30:38.922Z,72.97
2023-03-06T15:33:23.819Z,74.05
2023-03-06T15:36:20.745Z,75.35
2023-03-06T15:38:47.859Z,77.66
2023-03-06T15:41:29.422Z,80.61
2023-03-06T15:43:58.004Z,80.63
2023-03-06T15:46:24.488Z,80.57
2023-03-06T15:48:58.335Z,81.41
2023-03-06T15:51:25.402Z,82.26
2023-03-06T15:53:55.018Z,85.14
2023-03-06T15:56:28.432Z,86.84
2023-03-06T15:58:56.266Z,89.53
2023-03-06T16:01:22.724Z,91.81
2023-03-06T16:03:49.192Z,92.78
2023-03-06T16:06:21.182Z,93.33
2023-03-06T16:08:47.623Z,94.88
2023-03-06T16:11:32.544Z,93.96
2023-03-06T16:14:02.018Z,95.20
2023-03-06T16:16:37.621Z,94.23
2023-03-06T16:19:20.350Z,95.38
2023-03-06T16:21:51.972Z,94.48
2023-03-06T16:24:18.305Z,94.65
2023-03-06T16:26:45.492Z,95.53
2023-03-06T16:29:17.143Z,95.19
2023-03-06T16:31:43.719Z,94.86
2023-03-06T16:34:10.048Z,94.03
2023-03-06T16:36:36.523Z,95.24
2023-03-06T16:39:03.012Z,95.44
2023-03-06T16:41:29.644Z,95.74
2023-03-06T16:43:56.055Z,95.98
2023-03-06T16:46:24.097Z,95.13
2023-03-06T16:48:51.343Z,95.31
2023-03-06T16:51:20.424Z,95.19
2023-03-06T16:53:47.238Z,94.40
2023-03-06T16:56:16.056Z,94.92
2023-03-06T16:58:43.454Z,95.37
2023-03-06T17:01:14.146Z,95.12
2023-03-06T17:03:40.675Z,95.75
2023-03-06T17:06:18.541Z,95.29
2023-03-06T17:08:45.846Z,96.17
2023-03-06T17:11:13.306Z,96.71
2023-03-06T17:13:39.968Z,96.15
2023-03-06T17:16:08.218Z,96.95
2023-03-06T17:18:34.639Z,98.20
2023-03-06T17:21:00.990Z,98.13
2023-03-06T17:23:28.370Z,98.34
2023-03-06T17:26:10.259Z,99.29
2023-03-06T17:28:37.955Z,99.67
2023-03-06T17:31:12.717Z,100.00
2023-03-06T17:33:39.148Z,100.00
2023-03-06T17:36:05.845Z,100.00
2023-03-06T17:38:32.167Z,100.00
2023-03-06T17:41:02.106Z,100.00
2023-03-06T17:43:28.434Z,100.00
2023-03-06T17:45:54.734Z,100.00
2023-03-06T17:48:21.088Z,100.00
2023-03-06T17:50:54.114Z,100.00
2023-03-06T17:53:20.885Z,100.00
2023-03-06T17:55:47.914Z,100.00
2023-03-06T17:58:14.438Z,100.00
2023-03-06T18:00:42.125Z,100.00
2023-03-06T18:03:08.658Z,100.00
2023-03-06T18:05:35.750Z,100.00
2023-03-06T18:08:02.517Z,100.00
2023-03-06T18:10:28.955Z,100.00
2023-03-06T18:12:55.291Z,100.00
2023-03-06T18:15:21.572Z,100.00
2023-03-06T18:17:48.360Z,100.00
2023-03-06T18:20:14.965Z,100.00
2023-03-06T18:22:41.382Z,100.00
2023-03-06T18:25:08.182Z,100.00
2023-03-06T18:27:35.625Z,100.00
2023-03-06T18:30:02.258Z,100.00
2023-03-06T18:32:28.834Z,100.00
2023-03-06T18:34:55.368Z,100.00
2023-03-06T18:37:22.403Z,100.00
2023-03-06T18:39:48.951Z,100.00
2023-03-06T18:42:15.402Z,100.00
2023-03-06T18:44:41.814Z,100.00
2023-03-06T18:47:08.265Z,100.00
2023-03-06T18:49:34.732Z,100.00
2023-03-06T18:52:01.356Z,100.00
2023-03-06T18:54:27.748Z,100.00
2023-03-06T18:56:54.182Z,100.00
2023-03-06T18:59:20.601Z,100.00
2023-03-06T19:01:47.562Z,100.00
2023-03-06T19:04:14.477Z,100.00
2023-03-06T19:06:41.333Z,100.00
2023-03-06T19:09:07.785Z,100.00
2023-03-06T19:11:34.376Z,100.00
2023-03-06T19:14:01.054Z,100.00
2023-03-06T19:16:29.435Z,100.00
2023-03-06T19:18:56.724Z,100.00
2023-03-06T19:21:25.249Z,100.00
2023-03-06T19:23:52.033Z,100.00
2023-03-06T19:26:18.836Z,100.00
2023-03-06T19:28:46.277Z,100.00
2023-03-06T19:31:15.888Z,100.00
2023-03-06T19:33:42.973Z,100.00
2023-03-06T19:36:12.491Z,100.00
2023-03-06T19:38:39.278Z,100.00
2023-03-06T19:41:06.207Z,100.00
2023-03-06T19:43:32.649Z,100.00
2023-03-06T19:45:59.223Z,100.00
2023-03-06T19:48:25.790Z,100.00
2023-03-06T19:50:52.231Z,100.00
2023-03-06T19:53:18.694Z,100.00
2023-03-06T19:55:45.099Z,100.00
2023-03-06T19:58:11.478Z,100.00
2023-03-06T20:00:38.136Z,100.00
2023-03-06T20:03:04.917Z,100.00
2023-03-06T20:05:31.294Z,100.00
2023-03-06T20:07:57.657Z,100.00
2023-03-06T20:10:24.079Z,100.00
2023-03-06T20:12:50.432Z,100.00
2023-03-06T20:15:16.974Z,100.00
2023-03-06T20:17:43.412Z,100.00
2023-03-06T20:20:10.693Z,100.00
2023-03-06T20:22:37.293Z,100.00
2023-03-06T20:25:04.328Z,100.00
2023-03-06T20:27:30.781Z,100.00
2023-03-06T20:29:57.179Z,100.00
2023-03-06T20:32:23.552Z,100.00
2023-03-06T20:34:49.948Z,100.00
2023-03-06T20:37:16.413Z,100.00
2023-03-06T20:39:42.805Z,100.00
2023-03-06T20:42:09.099Z,100.00
2023-03-06T20:44:35.510Z,100.00
2023-03-06T20:47:01.852Z,100.00
2023-03-06T20:49:28.328Z,100.00
2023-03-06T20:51:54.793Z,100.00
2023-03-06T20:54:21.328Z,100.00
2023-03-06T20:56:49.179Z,100.00
2023-03-06T20:59:16.035Z,100.00
2023-03-06T21:01:44.708Z,100.00
2023-03-06T21:04:13.136Z,100.00
2023-03-06T21:06:40.580Z,100.00
2023-03-06T21:09:07.133Z,100.00
2023-03-06T21:11:34.784Z,100.00
2023-03-06T21:14:01.405Z,100.00
2023-03-06T21:16:28.621Z,100.00
2023-03-06T21:18:55.704Z,100.00
2023-03-06T21:21:25.567Z,100.00
2023-03-06T21:23:52.262Z,100.00
2023-03-06T21:26:21.388Z,100.00
2023-03-06T21:28:47.772Z,100.00
2023-03-06T21:31:14.966Z,100.00
2023-03-06T21:33:41.886Z,100.00
2023-03-06T21:36:11.025Z,100.00
2023-03-06T21:38:37.789Z,100.00
2023-03-06T21:41:13.352Z,100.00
2023-03-06T21:43:40.146Z,100.00
2023-03-06T21:46:06.944Z,100.00
2023-03-06T21:48:33.750Z,100.00
2023-03-06T21:51:11.511Z,100.00
2023-03-06T21:53:38.720Z,100.00
2023-03-06T21:56:05.494Z,100.00
2023-03-06T21:58:32.189Z,100.00
2023-03-06T22:00:59.035Z,100.00
2023-03-06T22:03:27.257Z,100.00
2023-03-06T22:05:53.642Z,100.00
2023-03-06T22:08:23.546Z,100.00
2023-03-06T22:10:50.102Z,100.00
2023-03-06T22:13:16.544Z,100.00
2023-03-06T22:15:52.886Z,100.00
2023-03-06T22:18:20.502Z,100.00
2023-03-06T22:20:47.052Z,100.00
2023-03-06T22:23:13.471Z,100.00
2023-03-06T22:25:39.957Z,100.00
2023-03-06T22:28:08.698Z,100.00
2023-03-06T22:30:35.396Z,100.00
2023-03-06T22:33:01.836Z,100.00
2023-03-06T22:35:28.379Z,100.00
2023-03-06T22:37:54.849Z,100.00
2023-03-06T22:40:21.311Z,100.00
2023-03-06T22:42:47.783Z,100.00
2023-03-06T22:45:14.301Z,100.00
2023-03-06T22:47:40.744Z,100.00
2023-03-06T22:50:07.653Z,100.00
2023-03-06T22:52:34.237Z,100.00
2023-03-06T22:55:00.884Z,100.00
2023-03-06T22:57:27.478Z,100.00
2023-03-06T22:59:53.987Z,100.00
2023-03-06T23:02:20.470Z,100.00
2023-03-06T23:04:50.398Z,100.00
2023-03-06T23:07:16.849Z,100.00
2023-03-06T23:09:43.329Z,100.00
2023-03-06T23:12:09.829Z,100.00
2023-03-06T23:14:36.257Z,100.00
2023-03-06T23:17:02.826Z,100.00
2023-03-06T23:19:29.342Z,100.00
2023-03-06T23:21:55.765Z,100.00
2023-03-06T23:24:22.249Z,100.00
2023-03-06T23:26:48.630Z,100.00
2023-03-06T23:29:14.948Z,100.00
2023-03-06T23:31:41.492Z,100.00
2023-03-06T23:34:09.633Z,100.00
2023-03-06T23:36:36.170Z,100.00
2023-03-06T23:39:02.749Z,100.00
2023-03-06T23:41:29.131Z,100.00
2023-03-06T23:43:55.520Z,100.00
2023-03-06T23:46:22.489Z,100.00
2023-03-06T23:48:48.896Z,100.00
2023-03-06T23:51:16.834Z,100.00
2023-03-06T23:53:47.586Z,100.00
2023-03-06T23:56:14.710Z,100.00
2023-03-06T23:58:41.261Z,100.00
